sensor_id;sensor_type;location;lat;lon;timestamp;pressure;altitude;pressure_sealevel;temperature;humidity
76216;BME280;65010;50.190;18.930;2023-02-02T06:50:42;97558.69;;;2.44;65.02
76216;BME280;65010;50.190;18.930;2023-02-02T06:53:49;97536.94;;;2.17;66.34
76216;BME280;65010;50.190;18.930;2023-02-02T06:56:58;97555.22;;;2.16;66.26
76216;BME280;65010;50.190;18.930;2023-02-02T07:00:07;97544.22;;;1.94;66.65
76216;BME280;65010;50.190;18.930;2023-02-02T07:03:21;97510.97;;;1.70;66.69
76216;BME280;65010;50.190;18.930;2023-02-02T07:06:31;97535.63;;;1.74;67.70
76216;BME280;65010;50.190;18.930;2023-02-02T07:09:38;97553.63;;;1.95;68.09
76216;BME280;65010;50.190;18.930;2023-02-02T07:12:44;97551.03;;;1.95;67.58
76216;BME280;65010;50.190;18.930;2023-02-02T07:15:50;97552.28;;;1.91;67.69
76216;BME280;65010;50.190;18.930;2023-02-02T07:18:58;97554.75;;;1.83;68.06
76216;BME280;65010;50.190;18.930;2023-02-02T07:22:17;97561.28;;;1.87;67.93
76216;BME280;65010;50.190;18.930;2023-02-02T07:25:23;97556.91;;;1.87;67.73
76216;BME280;65010;50.190;18.930;2023-02-02T07:28:30;97567.03;;;1.81;67.76
76216;BME280;65010;50.190;18.930;2023-02-02T07:31:36;97561.69;;;1.82;67.52
76216;BME280;65010;50.190;18.930;2023-02-02T07:34:43;97564.13;;;1.84;67.80
76216;BME280;65010;50.190;18.930;2023-02-02T07:37:53;97559.63;;;1.86;67.72
76216;BME280;65010;50.190;18.930;2023-02-02T07:41:01;97568.63;;;1.92;67.98
76216;BME280;65010;50.190;18.930;2023-02-02T07:44:12;97569.88;;;1.87;67.71
76216;BME280;65010;50.190;18.930;2023-02-02T07:47:20;97560.19;;;1.89;68.53
76216;BME280;65010;50.190;18.930;2023-02-02T07:50:29;97548.19;;;1.88;68.26
76216;BME280;65010;50.190;18.930;2023-02-02T07:53:42;97553.91;;;1.92;68.33
76216;BME280;65010;50.190;18.930;2023-02-02T07:56:48;97554.19;;;1.89;68.36
76216;BME280;65010;50.190;18.930;2023-02-02T07:59:55;97546.69;;;1.86;68.30
76216;BME280;65010;50.190;18.930;2023-02-02T08:03:01;97536.59;;;1.83;68.07
76216;BME280;65010;50.190;18.930;2023-02-02T08:06:11;97533.59;;;1.78;67.80
76216;BME280;65010;50.190;18.930;2023-02-02T08:09:21;97575.47;;;1.93;67.88
76216;BME280;65010;50.190;18.930;2023-02-02T08:12:31;97539.19;;;1.73;68.01
76216;BME280;65010;50.190;18.930;2023-02-02T08:15:38;97545.31;;;1.72;67.79
76216;BME280;65010;50.190;18.930;2023-02-02T08:18:45;97575.06;;;1.87;68.50
76216;BME280;65010;50.190;18.930;2023-02-02T08:21:52;97568.25;;;1.77;68.82
76216;BME280;65010;50.190;18.930;2023-02-02T08:25:01;97565.09;;;1.63;69.49
76216;BME280;65010;50.190;18.930;2023-02-02T08:28:07;97568.09;;;1.78;69.97
76216;BME280;65010;50.190;18.930;2023-02-02T08:31:17;97578.31;;;1.80;69.80
76216;BME280;65010;50.190;18.930;2023-02-02T08:34:24;97569.88;;;1.87;70.77
76216;BME280;65010;50.190;18.930;2023-02-02T08:37:31;97569.75;;;1.89;69.98
76216;BME280;65010;50.190;18.930;2023-02-02T08:40:39;97567.97;;;1.89;70.22
76216;BME280;65010;50.190;18.930;2023-02-02T08:43:46;97568.22;;;1.96;69.55
76216;BME280;65010;50.190;18.930;2023-02-02T08:46:52;97571.34;;;2.00;69.11
76216;BME280;65010;50.190;18.930;2023-02-02T08:49:59;97583.22;;;2.02;69.25
76216;BME280;65010;50.190;18.930;2023-02-02T08:53:04;97581.56;;;2.11;69.43
76216;BME280;65010;50.190;18.930;2023-02-02T08:56:15;97583.63;;;2.17;69.03
76216;BME280;65010;50.190;18.930;2023-02-02T08:59:23;97601.50;;;2.10;69.84
76216;BME280;65010;50.190;18.930;2023-02-02T09:02:30;97603.69;;;2.15;70.02
76216;BME280;65010;50.190;18.930;2023-02-02T09:05:35;97603.53;;;2.17;70.23
76216;BME280;65010;50.190;18.930;2023-02-02T09:08:44;97622.06;;;2.22;70.24
76216;BME280;65010;50.190;18.930;2023-02-02T09:11:53;97612.69;;;2.11;70.32
76216;BME280;65010;50.190;18.930;2023-02-02T09:14:59;97621.16;;;2.03;70.65
76216;BME280;65010;50.190;18.930;2023-02-02T09:18:05;97625.38;;;1.95;71.32
76216;BME280;65010;50.190;18.930;2023-02-02T09:21:14;97622.78;;;1.95;71.30
76216;BME280;65010;50.190;18.930;2023-02-02T09:24:21;97626.88;;;1.87;71.14
76216;BME280;65010;50.190;18.930;2023-02-02T09:27:30;97636.69;;;1.84;71.37
76216;BME280;65010;50.190;18.930;2023-02-02T09:30:41;97636.97;;;1.81;71.65
76216;BME280;65010;50.190;18.930;2023-02-02T09:33:48;97639.25;;;1.74;71.65
76216;BME280;65010;50.190;18.930;2023-02-02T09:36:53;97642.00;;;1.73;71.73
76216;BME280;65010;50.190;18.930;2023-02-02T09:40:01;97645.97;;;1.77;72.40
76216;BME280;65010;50.190;18.930;2023-02-02T09:43:26;97635.59;;;1.77;72.00
76216;BME280;65010;50.190;18.930;2023-02-02T09:46:57;97638.03;;;1.78;72.37
76216;BME280;65010;50.190;18.930;2023-02-02T09:50:19;97645.44;;;1.83;71.99
76216;BME280;65010;50.190;18.930;2023-02-02T09:53:42;97659.75;;;1.87;72.43
76216;BME280;65010;50.190;18.930;2023-02-02T09:57:00;97655.50;;;1.96;72.21
76216;BME280;65010;50.190;18.930;2023-02-02T10:00:26;97650.47;;;2.04;72.26
76216;BME280;65010;50.190;18.930;2023-02-02T10:03:40;97659.91;;;2.15;72.10
76216;BME280;65010;50.190;18.930;2023-02-02T10:07:03;97650.16;;;2.26;71.95
76216;BME280;65010;50.190;18.930;2023-02-02T10:10:19;97652.88;;;2.35;71.59
76216;BME280;65010;50.190;18.930;2023-02-02T10:13:36;97660.53;;;2.46;71.49
76216;BME280;65010;50.190;18.930;2023-02-02T10:16:52;97604.63;;;2.14;70.99
76216;BME280;65010;50.190;18.930;2023-02-02T10:23:39;97670.22;;;2.44;70.59
76216;BME280;65010;50.190;18.930;2023-02-02T10:26:49;97690.72;;;2.47;72.74
76216;BME280;65010;50.190;18.930;2023-02-02T10:30:00;97699.00;;;2.50;71.38
76216;BME280;65010;50.190;18.930;2023-02-02T10:33:19;97695.78;;;2.39;71.03
76216;BME280;65010;50.190;18.930;2023-02-02T10:36:41;97696.16;;;2.34;70.93
76216;BME280;65010;50.190;18.930;2023-02-02T10:40:20;97710.66;;;2.27;71.70
76216;BME280;65010;50.190;18.930;2023-02-02T10:47:29;97708.31;;;2.14;71.72
76216;BME280;65010;50.190;18.930;2023-02-02T10:50:42;97709.16;;;2.15;71.74
76216;BME280;65010;50.190;18.930;2023-02-02T10:53:58;97709.13;;;2.05;71.88
76216;BME280;65010;50.190;18.930;2023-02-02T10:57:14;97721.00;;;2.17;73.35
76216;BME280;65010;50.190;18.930;2023-02-02T11:00:30;97721.28;;;2.34;73.00
76216;BME280;65010;50.190;18.930;2023-02-02T11:03:43;97719.63;;;2.52;72.00
76216;BME280;65010;50.190;18.930;2023-02-02T11:06:50;97717.69;;;2.64;71.46
76216;BME280;65010;50.190;18.930;2023-02-02T11:09:53;97726.59;;;2.71;71.31
76216;BME280;65010;50.190;18.930;2023-02-02T11:13:05;97731.59;;;2.82;71.11
76216;BME280;65010;50.190;18.930;2023-02-02T11:16:25;97718.91;;;2.79;70.59
76216;BME280;65010;50.190;18.930;2023-02-02T11:19:45;97735.78;;;3.03;71.04
76216;BME280;65010;50.190;18.930;2023-02-02T11:23:03;97732.13;;;3.33;70.75
76216;BME280;65010;50.190;18.930;2023-02-02T11:26:10;97733.13;;;3.60;68.61
76216;BME280;65010;50.190;18.930;2023-02-02T11:29:26;97743.84;;;3.75;68.17
76216;BME280;65010;50.190;18.930;2023-02-02T11:32:35;97743.78;;;3.84;67.77
76216;BME280;65010;50.190;18.930;2023-02-02T11:35:52;97748.31;;;3.82;67.28
76216;BME280;65010;50.190;18.930;2023-02-02T11:39:15;97739.97;;;3.79;67.12
76216;BME280;65010;50.190;18.930;2023-02-02T11:42:26;97752.31;;;3.77;67.54
76216;BME280;65010;50.190;18.930;2023-02-02T11:45:39;97749.69;;;3.86;68.25
76216;BME280;65010;50.190;18.930;2023-02-02T11:48:49;97758.47;;;4.03;67.87
76216;BME280;65010;50.190;18.930;2023-02-02T11:52:05;97758.47;;;4.21;67.15
76216;BME280;65010;50.190;18.930;2023-02-02T11:55:26;97762.97;;;4.29;65.88
76216;BME280;65010;50.190;18.930;2023-02-02T11:58:43;97764.28;;;4.15;65.04
76216;BME280;65010;50.190;18.930;2023-02-02T12:02:22;97778.69;;;4.09;65.08
76216;BME280;65010;50.190;18.930;2023-02-02T12:05:35;97762.94;;;3.83;65.16
76216;BME280;65010;50.190;18.930;2023-02-02T12:08:43;97771.84;;;3.81;66.02
76216;BME280;65010;50.190;18.930;2023-02-02T12:12:01;97777.75;;;3.73;66.03
76216;BME280;65010;50.190;18.930;2023-02-02T12:15:24;97796.66;;;3.65;66.34
76216;BME280;65010;50.190;18.930;2023-02-02T12:19:02;97786.34;;;3.56;66.55
76216;BME280;65010;50.190;18.930;2023-02-02T12:22:34;97779.38;;;3.46;66.31
76216;BME280;65010;50.190;18.930;2023-02-02T12:26:19;97796.09;;;3.44;66.41
76216;BME280;65010;50.190;18.930;2023-02-02T12:29:44;97801.38;;;3.52;67.03
76216;BME280;65010;50.190;18.930;2023-02-02T12:33:22;97802.16;;;3.62;67.78
76216;BME280;65010;50.190;18.930;2023-02-02T12:36:49;97804.66;;;3.54;67.09
76216;BME280;65010;50.190;18.930;2023-02-02T12:40:22;97813.25;;;3.55;66.76
76216;BME280;65010;50.190;18.930;2023-02-02T12:43:42;97816.44;;;3.48;66.39
76216;BME280;65010;50.190;18.930;2023-02-02T12:47:07;97816.44;;;3.48;66.90
76216;BME280;65010;50.190;18.930;2023-02-02T12:50:29;97825.88;;;3.49;66.43
76216;BME280;65010;50.190;18.930;2023-02-02T12:54:03;97831.31;;;3.56;67.09
76216;BME280;65010;50.190;18.930;2023-02-02T12:57:48;97833.34;;;3.62;66.13
76216;BME280;65010;50.190;18.930;2023-02-02T13:01:10;97835.94;;;3.62;65.68
76216;BME280;65010;50.190;18.930;2023-02-02T13:04:41;97835.50;;;3.67;65.56
76216;BME280;65010;50.190;18.930;2023-02-02T13:08:05;97834.84;;;3.65;65.37
76216;BME280;65010;50.190;18.930;2023-02-02T13:11:23;97846.44;;;3.70;65.70
76216;BME280;65010;50.190;18.930;2023-02-02T13:14:45;97849.69;;;3.82;66.14
76216;BME280;65010;50.190;18.930;2023-02-02T13:17:57;97820.00;;;3.85;65.40
76216;BME280;65010;50.190;18.930;2023-02-02T13:21:12;97831.09;;;4.15;66.07
76216;BME280;65010;50.190;18.930;2023-02-02T13:24:26;97852.38;;;4.46;64.50
76216;BME280;65010;50.190;18.930;2023-02-02T13:27:39;97851.22;;;4.58;63.46
76216;BME280;65010;50.190;18.930;2023-02-02T13:30:49;97831.22;;;4.59;63.81
76216;BME280;65010;50.190;18.930;2023-02-02T13:34:08;97860.88;;;4.84;62.67
76216;BME280;65010;50.190;18.930;2023-02-02T13:37:27;97849.19;;;4.88;62.17
76216;BME280;65010;50.190;18.930;2023-02-02T13:40:42;97863.66;;;4.82;61.13
76216;BME280;65010;50.190;18.930;2023-02-02T13:43:59;97860.13;;;4.74;61.54
76216;BME280;65010;50.190;18.930;2023-02-02T13:47:18;97864.91;;;4.60;61.23
76216;BME280;65010;50.190;18.930;2023-02-02T13:50:44;97873.53;;;4.61;62.45
76216;BME280;65010;50.190;18.930;2023-02-02T13:58:47;97892.25;;;4.46;60.87
76216;BME280;65010;50.190;18.930;2023-02-02T14:02:19;97903.38;;;4.39;61.40
76216;BME280;65010;50.190;18.930;2023-02-02T14:05:34;97902.84;;;4.35;60.75
76216;BME280;65010;50.190;18.930;2023-02-02T14:08:47;97900.69;;;4.30;61.07
76216;BME280;65010;50.190;18.930;2023-02-02T14:12:00;97908.06;;;4.35;61.60
76216;BME280;65010;50.190;18.930;2023-02-02T14:15:12;97914.06;;;4.36;60.68
76216;BME280;65010;50.190;18.930;2023-02-02T14:18:51;97921.72;;;4.37;60.61
76216;BME280;65010;50.190;18.930;2023-02-02T14:22:17;97927.25;;;4.34;60.16
76216;BME280;65010;50.190;18.930;2023-02-02T14:25:46;97929.16;;;4.32;61.06
76216;BME280;65010;50.190;18.930;2023-02-02T14:28:57;97941.59;;;4.38;61.59
76216;BME280;65010;50.190;18.930;2023-02-02T14:32:31;97941.84;;;4.45;61.04
76216;BME280;65010;50.190;18.930;2023-02-02T14:35:58;97935.28;;;4.41;60.28
76216;BME280;65010;50.190;18.930;2023-02-02T14:39:18;97955.78;;;4.44;60.10
76216;BME280;65010;50.190;18.930;2023-02-02T14:42:48;97961.56;;;4.38;59.79
76216;BME280;65010;50.190;18.930;2023-02-02T14:46:40;97967.53;;;4.30;60.25
76216;BME280;65010;50.190;18.930;2023-02-02T14:49:56;97976.13;;;4.30;60.42
76216;BME280;65010;50.190;18.930;2023-02-02T14:53:06;97976.50;;;4.36;61.59
76216;BME280;65010;50.190;18.930;2023-02-02T14:56:39;97973.09;;;4.35;61.72
76216;BME280;65010;50.190;18.930;2023-02-02T14:59:53;97985.53;;;4.41;62.21
76216;BME280;65010;50.190;18.930;2023-02-02T15:03:34;97992.13;;;4.36;61.97
76216;BME280;65010;50.190;18.930;2023-02-02T15:06:52;98006.81;;;4.27;62.55
76216;BME280;65010;50.190;18.930;2023-02-02T15:09:59;98013.81;;;4.17;62.87
76216;BME280;65010;50.190;18.930;2023-02-02T15:13:10;98019.47;;;4.12;62.91
76216;BME280;65010;50.190;18.930;2023-02-02T15:16:28;98042.44;;;4.17;63.01
76216;BME280;65010;50.190;18.930;2023-02-02T15:19:40;98038.06;;;4.07;62.90
76216;BME280;65010;50.190;18.930;2023-02-02T15:23:01;98046.72;;;4.08;63.33
76216;BME280;65010;50.190;18.930;2023-02-02T15:26:17;98059.44;;;4.01;62.84
76216;BME280;65010;50.190;18.930;2023-02-02T15:29:36;98062.31;;;3.88;62.15
76216;BME280;65010;50.190;18.930;2023-02-02T15:32:48;98066.94;;;3.75;61.89
76216;BME280;65010;50.190;18.930;2023-02-02T15:35:59;98076.81;;;3.72;62.63
76216;BME280;65010;50.190;18.930;2023-02-02T15:39:25;98076.38;;;3.66;62.37
76216;BME280;65010;50.190;18.930;2023-02-02T15:42:40;98087.91;;;3.74;62.82
76216;BME280;65010;50.190;18.930;2023-02-02T15:46:03;98091.16;;;3.66;63.07
76216;BME280;65010;50.190;18.930;2023-02-02T15:49:28;98093.78;;;3.66;63.74
76216;BME280;65010;50.190;18.930;2023-02-02T15:52:45;98106.75;;;3.66;63.56
76216;BME280;65010;50.190;18.930;2023-02-02T15:55:56;98114.69;;;3.64;63.58
76216;BME280;65010;50.190;18.930;2023-02-02T15:59:18;98127.94;;;3.61;63.61
76216;BME280;65010;50.190;18.930;2023-02-02T16:02:33;98139.31;;;3.60;63.78
76216;BME280;65010;50.190;18.930;2023-02-02T16:05:48;98137.94;;;3.66;64.23
76216;BME280;65010;50.190;18.930;2023-02-02T16:09:01;98140.38;;;3.67;63.70
76216;BME280;65010;50.190;18.930;2023-02-02T16:12:16;98148.06;;;3.69;64.16
76216;BME280;65010;50.190;18.930;2023-02-02T16:15:28;98165.19;;;3.72;63.97
76216;BME280;65010;50.190;18.930;2023-02-02T16:18:35;98156.00;;;3.58;63.57
76216;BME280;65010;50.190;18.930;2023-02-02T16:21:47;98168.84;;;3.69;63.98
76216;BME280;65010;50.190;18.930;2023-02-02T16:25:01;98173.66;;;3.64;63.32
76216;BME280;65010;50.190;18.930;2023-02-02T16:28:17;98180.06;;;3.60;63.80
76216;BME280;65010;50.190;18.930;2023-02-02T16:31:26;98179.06;;;3.51;63.63
76216;BME280;65010;50.190;18.930;2023-02-02T16:34:45;98200.69;;;3.52;64.13
76216;BME280;65010;50.190;18.930;2023-02-02T16:37:51;98201.78;;;3.49;63.92
76216;BME280;65010;50.190;18.930;2023-02-02T16:41:03;98203.16;;;3.43;63.87
76216;BME280;65010;50.190;18.930;2023-02-02T16:44:35;98210.75;;;3.35;64.16
76216;BME280;65010;50.190;18.930;2023-02-02T16:47:45;98216.91;;;3.34;64.38
76216;BME280;65010;50.190;18.930;2023-02-02T16:51:03;98231.41;;;3.37;64.20
76216;BME280;65010;50.190;18.930;2023-02-02T16:54:18;98239.47;;;3.34;64.05
76216;BME280;65010;50.190;18.930;2023-02-02T16:57:27;98240.53;;;3.31;64.65
76216;BME280;65010;50.190;18.930;2023-02-02T17:00:55;98244.91;;;3.30;64.14
76216;BME280;65010;50.190;18.930;2023-02-02T17:04:21;98262.28;;;3.30;63.86
76216;BME280;65010;50.190;18.930;2023-02-02T17:07:33;98272.97;;;3.37;64.72
76216;BME280;65010;50.190;18.930;2023-02-02T17:10:43;98287.44;;;3.29;63.54
76216;BME280;65010;50.190;18.930;2023-02-02T17:13:50;98290.97;;;3.28;64.32
76216;BME280;65010;50.190;18.930;2023-02-02T17:17:02;98300.72;;;3.36;63.82
76216;BME280;65010;50.190;18.930;2023-02-02T17:20:11;98310.94;;;3.28;63.83
76216;BME280;65010;50.190;18.930;2023-02-02T17:23:19;98318.34;;;3.33;63.73
76216;BME280;65010;50.190;18.930;2023-02-02T17:26:26;98316.94;;;3.28;63.95
76216;BME280;65010;50.190;18.930;2023-02-02T17:29:32;98324.03;;;3.26;63.77
76216;BME280;65010;50.190;18.930;2023-02-02T17:32:41;98329.81;;;3.30;62.44
76216;BME280;65010;50.190;18.930;2023-02-02T17:35:47;98331.84;;;3.26;61.53
76216;BME280;65010;50.190;18.930;2023-02-02T17:38:58;98330.25;;;3.14;62.39
76216;BME280;65010;50.190;18.930;2023-02-02T17:42:26;98336.84;;;3.18;66.06
76216;BME280;65010;50.190;18.930;2023-02-02T17:45:35;98339.56;;;3.17;63.45
76216;BME280;65010;50.190;18.930;2023-02-02T17:48:45;98357.81;;;3.05;60.65
76216;BME280;65010;50.190;18.930;2023-02-02T17:51:51;98363.75;;;2.96;60.79
76216;BME280;65010;50.190;18.930;2023-02-02T17:54:59;98368.75;;;2.88;61.01
76216;BME280;65010;50.190;18.930;2023-02-02T17:58:06;98374.44;;;2.82;61.82
76216;BME280;65010;50.190;18.930;2023-02-02T18:01:14;98376.25;;;2.70;60.78
76216;BME280;65010;50.190;18.930;2023-02-02T18:04:24;98384.91;;;2.59;60.54
76216;BME280;65010;50.190;18.930;2023-02-02T18:07:30;98389.88;;;2.40;59.51
76216;BME280;65010;50.190;18.930;2023-02-02T18:10:41;98395.06;;;2.28;59.13
76216;BME280;65010;50.190;18.930;2023-02-02T18:13:47;98405.47;;;2.17;58.03
76216;BME280;65010;50.190;18.930;2023-02-02T20:15:42;98643.16;;;2.05;55.72
76216;BME280;65010;50.190;18.930;2023-02-02T20:18:53;98647.41;;;2.06;55.44
76216;BME280;65010;50.190;18.930;2023-02-02T20:22:02;98647.53;;;2.05;56.06
76216;BME280;65010;50.190;18.930;2023-02-02T20:25:26;98648.69;;;2.01;55.39
76216;BME280;65010;50.190;18.930;2023-02-02T20:28:39;98655.47;;;1.90;55.67
76216;BME280;65010;50.190;18.930;2023-02-02T20:31:55;98655.59;;;1.89;55.95
76216;BME280;65010;50.190;18.930;2023-02-02T20:35:23;98669.16;;;1.93;56.33
76216;BME280;65010;50.190;18.930;2023-02-02T20:38:38;98675.28;;;1.92;56.25
76216;BME280;65010;50.190;18.930;2023-02-02T20:41:44;98668.44;;;1.90;56.53
76216;BME280;65010;50.190;18.930;2023-02-02T20:44:51;98665.13;;;1.88;56.66
76216;BME280;65010;50.190;18.930;2023-02-02T20:48:01;98680.00;;;1.98;56.47
76216;BME280;65010;50.190;18.930;2023-02-02T20:51:11;98685.44;;;1.95;56.66
76216;BME280;65010;50.190;18.930;2023-02-02T20:54:18;98689.03;;;1.92;56.52
76216;BME280;65010;50.190;18.930;2023-02-02T20:57:25;98694.03;;;1.95;56.42
76216;BME280;65010;50.190;18.930;2023-02-02T21:00:31;98699.75;;;1.87;56.59
76216;BME280;65010;50.190;18.930;2023-02-02T21:03:40;98712.00;;;1.85;57.25
76216;BME280;65010;50.190;18.930;2023-02-02T21:06:47;98721.44;;;1.86;56.71
76216;BME280;65010;50.190;18.930;2023-02-02T21:09:55;98724.84;;;1.87;56.35
76216;BME280;65010;50.190;18.930;2023-02-02T21:13:20;98726.63;;;1.86;57.08
76216;BME280;65010;50.190;18.930;2023-02-02T21:16:27;98737.00;;;1.86;56.73
76216;BME280;65010;50.190;18.930;2023-02-02T21:19:36;98735.41;;;1.97;57.05
76216;BME280;65010;50.190;18.930;2023-02-02T21:22:42;98731.13;;;1.96;56.42
76216;BME280;65010;50.190;18.930;2023-02-02T21:25:49;98733.84;;;1.94;57.04
76216;BME280;65010;50.190;18.930;2023-02-02T21:28:56;98745.78;;;1.97;56.83
76216;BME280;65010;50.190;18.930;2023-02-02T21:32:02;98747.19;;;2.01;56.82
76216;BME280;65010;50.190;18.930;2023-02-02T21:35:12;98745.63;;;1.98;56.80
76216;BME280;65010;50.190;18.930;2023-02-02T21:38:18;98754.25;;;1.99;56.35
76216;BME280;65010;50.190;18.930;2023-02-02T21:41:31;98763.56;;;2.01;57.01
76216;BME280;65010;50.190;18.930;2023-02-02T21:44:40;98769.19;;;1.95;56.97
76216;BME280;65010;50.190;18.930;2023-02-02T21:47:51;98763.78;;;1.98;56.66
76216;BME280;65010;50.190;18.930;2023-02-02T21:51:20;98762.34;;;1.94;56.96
76216;BME280;65010;50.190;18.930;2023-02-02T21:54:35;98771.19;;;1.92;57.23
76216;BME280;65010;50.190;18.930;2023-02-02T21:57:42;98774.38;;;1.95;56.69
76216;BME280;65010;50.190;18.930;2023-02-02T22:00:49;98773.66;;;1.93;55.70
76216;BME280;65010;50.190;18.930;2023-02-02T22:03:55;98769.00;;;1.85;56.62
76216;BME280;65010;50.190;18.930;2023-02-02T22:07:13;98783.22;;;1.80;56.46
76216;BME280;65010;50.190;18.930;2023-02-02T22:10:28;98761.28;;;1.60;56.07
76216;BME280;65010;50.190;18.930;2023-02-02T22:13:41;98783.25;;;1.54;56.76
76216;BME280;65010;50.190;18.930;2023-02-02T22:16:50;98799.66;;;1.55;56.83
76216;BME280;65010;50.190;18.930;2023-02-02T22:20:09;98798.22;;;1.50;57.18
76216;BME280;65010;50.190;18.930;2023-02-02T22:23:37;98791.88;;;1.42;56.69
76216;BME280;65010;50.190;18.930;2023-02-02T22:26:46;98804.84;;;1.42;57.12
76216;BME280;65010;50.190;18.930;2023-02-02T22:29:56;98804.22;;;1.38;57.40
76216;BME280;65010;50.190;18.930;2023-02-02T22:33:09;98803.28;;;1.39;58.57
76216;BME280;65010;50.190;18.930;2023-02-02T22:36:16;98805.97;;;1.38;57.45
76216;BME280;65010;50.190;18.930;2023-02-02T22:39:25;98812.91;;;1.37;57.06
76216;BME280;65010;50.190;18.930;2023-02-02T22:42:31;98820.59;;;1.39;56.91
76216;BME280;65010;50.190;18.930;2023-02-02T22:45:38;98813.22;;;1.45;57.12
76216;BME280;65010;50.190;18.930;2023-02-02T22:48:44;98813.31;;;1.44;56.35
76216;BME280;65010;50.190;18.930;2023-02-02T22:51:51;98835.19;;;1.53;56.71
76216;BME280;65010;50.190;18.930;2023-02-02T22:54:59;98830.31;;;1.48;57.04
76216;BME280;65010;50.190;18.930;2023-02-02T22:58:06;98842.13;;;1.52;57.29
76216;BME280;65010;50.190;18.930;2023-02-02T23:01:12;98847.94;;;1.56;56.78
76216;BME280;65010;50.190;18.930;2023-02-02T23:04:19;98845.16;;;1.59;55.99
76216;BME280;65010;50.190;18.930;2023-02-02T23:07:25;98852.91;;;1.59;56.36
76216;BME280;65010;50.190;18.930;2023-02-02T23:10:34;98856.22;;;1.61;56.92
76216;BME280;65010;50.190;18.930;2023-02-02T23:13:40;98856.97;;;1.63;56.23
76216;BME280;65010;50.190;18.930;2023-02-02T23:16:47;98855.41;;;1.60;56.15
76216;BME280;65010;50.190;18.930;2023-02-02T23:19:53;98853.84;;;1.58;55.99
76216;BME280;65010;50.190;18.930;2023-02-02T23:22:59;98856.00;;;1.64;56.55
76216;BME280;65010;50.190;18.930;2023-02-02T23:26:08;98858.50;;;1.65;56.34
76216;BME280;65010;50.190;18.930;2023-02-02T23:29:15;98865.06;;;1.58;56.29
76216;BME280;65010;50.190;18.930;2023-02-02T23:32:21;98860.78;;;1.57;56.85
76216;BME280;65010;50.190;18.930;2023-02-02T23:35:28;98867.50;;;1.60;56.18
76216;BME280;65010;50.190;18.930;2023-02-02T23:38:33;98866.78;;;1.58;55.98
76216;BME280;65010;50.190;18.930;2023-02-02T23:41:43;98877.34;;;1.42;56.13
76216;BME280;65010;50.190;18.930;2023-02-02T23:44:50;98885.44;;;1.50;56.75
76216;BME280;65010;50.190;18.930;2023-02-02T23:47:57;98886.16;;;1.52;56.36
76216;BME280;65010;50.190;18.930;2023-02-02T23:51:04;98900.47;;;1.58;56.31
76216;BME280;65010;50.190;18.930;2023-02-02T23:54:12;98898.31;;;1.64;56.56
76216;BME280;65010;50.190;18.930;2023-02-02T23:57:21;98908.38;;;1.69;56.60
